createdAt,value
2023-04-02T00:01:00.857Z,9.49
2023-04-02T00:04:05.692Z,9.26
2023-04-02T00:06:34.821Z,9.17
2023-04-02T00:09:23.075Z,9.52
2023-04-02T00:11:55.735Z,9.54
2023-04-02T00:14:31.240Z,9.85
2023-04-02T00:17:00.166Z,10.08
2023-04-02T00:19:47.174Z,9.58
2023-04-02T00:22:19.668Z,9.65
2023-04-02T00:24:46.912Z,9.75
2023-04-02T00:27:14.785Z,9.53
2023-04-02T00:29:52.781Z,9.51
2023-04-02T00:32:28.735Z,9.61
2023-04-02T00:34:55.856Z,10.00
2023-04-02T00:37:25.132Z,9.97
2023-04-02T00:40:07.100Z,9.96
2023-04-02T00:42:35.337Z,10.13
2023-04-02T00:45:02.348Z,10.32
2023-04-02T00:47:33.683Z,9.81
2023-04-02T00:50:03.445Z,9.66
2023-04-02T00:52:31.963Z,9.40
2023-04-02T00:55:24.889Z,9.20
2023-04-02T00:57:51.991Z,9.24
2023-04-02T01:00:29.283Z,9.06
2023-04-02T01:03:28.962Z,9.45
2023-04-02T01:06:10.814Z,9.18
2023-04-02T01:08:59.321Z,9.09
2023-04-02T01:11:44.653Z,8.81
2023-04-02T01:14:26.404Z,8.79
2023-04-02T01:17:18.447Z,9.26
2023-04-02T01:19:58.492Z,9.32
2023-04-02T01:22:35.164Z,9.71
2023-04-02T01:25:04.566Z,9.77
2023-04-02T01:27:58.712Z,9.71
2023-04-02T01:30:25.607Z,9.93
2023-04-02T01:32:52.773Z,9.80
2023-04-02T01:35:19.544Z,9.83
2023-04-02T01:37:49.879Z,9.52
2023-04-02T01:40:19.538Z,9.43
2023-04-02T01:43:07.897Z,9.59
2023-04-02T01:45:35.574Z,9.39
2023-04-02T01:48:09.264Z,9.63
2023-04-02T01:50:37.979Z,9.64
2023-04-02T01:53:07.473Z,9.42
2023-04-02T01:55:43.015Z,9.77
2023-04-02T01:58:11.441Z,9.14
2023-04-02T02:00:45.760Z,9.62
2023-04-02T02:03:13.007Z,9.15
2023-04-02T02:05:40.222Z,9.42
2023-04-02T02:08:17.066Z,9.09
2023-04-02T02:10:43.587Z,9.12
2023-04-02T02:13:15.937Z,8.96
2023-04-02T02:15:42.492Z,8.77
2023-04-02T02:18:11.330Z,9.00
2023-04-02T02:20:37.848Z,9.18
2023-04-02T02:23:05.542Z,9.45
2023-04-02T02:25:34.392Z,9.44
2023-04-02T02:28:21.871Z,9.87
2023-04-02T02:30:52.832Z,9.46
2023-04-02T02:33:29.280Z,9.35
2023-04-02T02:36:16.572Z,9.15
2023-04-02T02:38:54.643Z,8.83
2023-04-02T02:41:24.583Z,9.44
2023-04-02T02:44:12.976Z,8.82
2023-04-02T02:46:44.344Z,8.99
2023-04-02T02:49:16.015Z,8.58
2023-04-02T02:52:03.985Z,9.00
2023-04-02T02:54:31.658Z,8.80
2023-04-02T02:57:01.819Z,9.02
2023-04-02T02:59:29.932Z,9.05
2023-04-02T03:01:57.023Z,9.03
2023-04-02T03:04:24.288Z,9.19
2023-04-02T03:06:57.010Z,7.85
2023-04-02T03:09:33.453Z,8.73
2023-04-02T03:12:06.619Z,8.66
2023-04-02T03:14:37.099Z,8.75
2023-04-02T03:17:10.345Z,8.63
2023-04-02T03:20:06.422Z,8.78
2023-04-02T03:22:43.991Z,8.67
2023-04-02T03:25:30.936Z,8.98
2023-04-02T03:28:05.005Z,9.18
2023-04-02T03:30:44.745Z,8.75
2023-04-02T03:33:23.136Z,8.70
2023-04-02T03:36:21.203Z,9.08
2023-04-02T03:38:55.618Z,8.94
2023-04-02T03:41:28.173Z,9.15
2023-04-02T03:43:58.655Z,9.07
2023-04-02T03:46:46.290Z,9.04
2023-04-02T03:49:19.437Z,9.06
2023-04-02T03:52:01.040Z,8.83
2023-04-02T03:54:28.422Z,9.17
2023-04-02T03:56:55.073Z,8.94
2023-04-02T03:59:47.524Z,9.10
2023-04-02T04:02:26.391Z,9.13
2023-04-02T04:04:54.720Z,9.40
2023-04-02T04:07:34.731Z,9.48
2023-04-02T04:10:02.382Z,9.08
2023-04-02T04:12:32.860Z,8.63
2023-04-02T04:15:28.565Z,8.67
2023-04-02T04:18:13.835Z,7.73
2023-04-02T04:20:42.094Z,8.81
2023-04-02T04:23:22.282Z,8.83
2023-04-02T04:25:57.646Z,8.15
2023-04-02T04:28:31.209Z,8.59
2023-04-02T04:31:01.138Z,8.18
2023-04-02T04:33:43.720Z,8.48
2023-04-02T04:36:27.852Z,8.51
2023-04-02T04:38:59.514Z,8.06
2023-04-02T04:41:30.694Z,7.96
2023-04-02T04:44:01.465Z,8.41
2023-04-02T04:47:08.208Z,7.90
2023-04-02T04:49:45.677Z,7.62
2023-04-02T04:52:18.598Z,7.79
2023-04-02T04:54:45.999Z,8.00
2023-04-02T04:57:42.189Z,7.98
2023-04-02T05:00:20.695Z,7.73
2023-04-02T05:02:52.024Z,7.52
2023-04-02T05:05:24.652Z,7.42
2023-04-02T05:07:59.108Z,7.92
2023-04-02T05:10:51.816Z,8.37
2023-04-02T05:13:25.685Z,8.76
2023-04-02T05:16:05.643Z,8.08
2023-04-02T05:18:51.353Z,7.78
2023-04-02T05:21:37.900Z,7.61
2023-04-02T05:24:35.887Z,7.54
2023-04-02T05:27:09.515Z,7.71
2023-04-02T05:29:38.846Z,7.88
2023-04-02T05:32:28.564Z,7.79
2023-04-02T05:34:57.399Z,7.85
2023-04-02T05:37:27.454Z,7.42
2023-04-02T05:39:56.674Z,7.67
2023-04-02T05:42:25.650Z,7.57
2023-04-02T05:45:27.793Z,7.53
2023-04-02T05:48:01.807Z,7.95
2023-04-02T05:50:37.520Z,8.18
2023-04-02T05:53:12.590Z,8.21
2023-04-02T05:55:51.444Z,8.31
2023-04-02T05:58:37.322Z,8.41
2023-04-02T06:01:29.545Z,8.77
2023-04-02T06:04:23.693Z,8.19
2023-04-02T06:06:59.569Z,8.15
2023-04-02T06:09:43.192Z,8.08
2023-04-02T06:12:21.823Z,7.93
2023-04-02T06:14:48.528Z,8.14
2023-04-02T06:17:17.050Z,7.94
2023-04-02T06:19:43.847Z,7.92
2023-04-02T06:22:30.910Z,8.17
2023-04-02T06:25:22.820Z,8.56
2023-04-02T06:27:50.623Z,7.91
2023-04-02T06:30:19.690Z,8.15
2023-04-02T06:32:46.152Z,8.21
2023-04-02T06:35:14.084Z,7.85
2023-04-02T06:37:43.445Z,7.62
2023-04-02T06:40:28.414Z,7.81
2023-04-02T06:42:59.624Z,7.71
2023-04-02T06:45:30.298Z,7.79
2023-04-02T06:47:57.952Z,7.32
2023-04-02T06:50:46.366Z,7.96
2023-04-02T06:53:29.166Z,8.19
2023-04-02T06:56:34.857Z,8.32
2023-04-02T06:59:04.427Z,8.58
2023-04-02T07:01:32.659Z,8.19
2023-04-02T07:03:59.669Z,8.37
2023-04-02T07:06:26.195Z,7.56
2023-04-02T07:08:52.759Z,7.66
2023-04-02T07:11:21.608Z,7.59
2023-04-02T07:13:49.357Z,7.33
2023-04-02T07:16:21.137Z,7.72
2023-04-02T07:18:48.705Z,8.01
2023-04-02T07:21:15.554Z,7.61
2023-04-02T07:23:42.063Z,7.82
2023-04-02T07:26:13.970Z,7.97
2023-04-02T07:28:40.828Z,7.73
2023-04-02T07:31:19.137Z,7.74
2023-04-02T07:33:46.021Z,7.41
2023-04-02T07:36:17.986Z,8.05
2023-04-02T07:38:44.746Z,7.98
2023-04-02T07:41:11.593Z,7.78
2023-04-02T07:43:38.780Z,8.04
2023-04-02T07:46:06.407Z,7.79
2023-04-02T07:48:33.044Z,7.52
2023-04-02T07:51:00.488Z,8.21
2023-04-02T07:53:34.629Z,7.90
2023-04-02T07:56:02.937Z,7.59
2023-04-02T07:58:31.987Z,7.64
2023-04-02T08:00:59.032Z,7.80
2023-04-02T08:03:25.728Z,7.79
2023-04-02T08:05:54.702Z,7.72
2023-04-02T08:08:22.945Z,7.64
2023-04-02T08:10:50.322Z,7.31
2023-04-02T08:13:18.166Z,7.65
2023-04-02T08:15:44.766Z,8.21
2023-04-02T08:18:12.033Z,8.16
2023-04-02T08:20:38.679Z,8.21
2023-04-02T08:23:06.987Z,8.04
2023-04-02T08:26:17.031Z,8.12
2023-04-02T08:29:24.665Z,7.83
2023-04-02T08:32:31.940Z,7.70
2023-04-02T08:35:39.587Z,7.71
2023-04-02T08:38:47.062Z,7.43
2023-04-02T08:42:03.337Z,8.09
2023-04-02T08:45:52.240Z,8.48
2023-04-02T08:49:01.972Z,7.83
2023-04-02T08:52:25.610Z,9.06
2023-04-02T08:55:36.190Z,8.26
2023-04-02T08:58:47.449Z,9.20
2023-04-02T09:02:00.711Z,9.24
2023-04-02T09:05:20.676Z,8.83
2023-04-02T09:08:29.911Z,8.22
2023-04-02T09:11:41.180Z,9.29
2023-04-02T09:14:54.335Z,9.35
2023-04-02T09:18:16.471Z,9.17
2023-04-02T09:21:32.910Z,9.29
2023-04-02T09:24:40.056Z,9.41
2023-04-02T09:27:50.176Z,9.34
2023-04-02T09:31:02.097Z,9.09
2023-04-02T09:34:29.686Z,8.79
2023-04-02T09:37:37.346Z,9.04
2023-04-02T09:40:53.593Z,9.17
2023-04-02T09:44:32.027Z,9.52
2023-04-02T09:47:40.928Z,9.56
2023-04-02T09:50:49.650Z,9.03
2023-04-02T09:54:03.120Z,9.27
2023-04-02T09:57:28.001Z,9.48
2023-04-02T10:00:35.438Z,9.23
2023-04-02T10:03:43.000Z,9.43
2023-04-02T10:06:50.770Z,9.28
2023-04-02T10:09:59.331Z,9.56
2023-04-02T10:13:29.433Z,9.39
2023-04-02T10:16:42.442Z,9.82
2023-04-02T10:19:52.558Z,9.55
2023-04-02T10:22:59.863Z,9.59
2023-04-02T10:26:37.924Z,9.41
2023-04-02T10:30:11.265Z,10.38
2023-04-02T10:33:25.397Z,9.84
2023-04-02T10:36:55.358Z,10.04
2023-04-02T10:40:32.459Z,9.68
2023-04-02T10:44:03.627Z,9.78
2023-04-02T10:47:33.468Z,9.71
2023-04-02T10:50:51.763Z,9.90
2023-04-02T10:54:28.326Z,10.34
2023-04-02T10:57:40.706Z,10.16
2023-04-02T11:00:50.676Z,9.49
2023-04-02T11:04:05.980Z,9.67
2023-04-02T11:07:20.633Z,9.65
2023-04-02T11:10:30.679Z,9.87
2023-04-02T11:13:57.483Z,10.36
2023-04-02T11:17:04.654Z,10.61
2023-04-02T11:20:49.056Z,10.13
2023-04-02T11:24:06.219Z,9.08
2023-04-02T11:27:16.446Z,10.47
2023-04-02T11:30:26.190Z,10.79
2023-04-02T11:33:44.688Z,10.35
2023-04-02T11:36:53.773Z,10.10
2023-04-02T11:40:10.984Z,10.73
2023-04-02T11:43:34.695Z,9.86
2023-04-02T11:46:42.868Z,9.65
2023-04-02T11:50:01.529Z,9.58
2023-04-02T11:53:11.898Z,9.27
2023-04-02T11:57:00.828Z,9.82
2023-04-02T12:00:32.838Z,9.52
2023-04-02T12:04:01.567Z,10.22
2023-04-02T12:07:27.943Z,9.50
2023-04-02T12:10:58.844Z,10.55
2023-04-02T12:14:45.818Z,11.27
2023-04-02T12:17:53.466Z,10.99
2023-04-02T12:21:01.245Z,11.76
2023-04-02T12:24:24.056Z,11.73
2023-04-02T12:27:31.643Z,11.10
2023-04-02T12:30:38.903Z,12.34
2023-04-02T12:33:46.280Z,11.50
2023-04-02T12:37:02.648Z,10.98
2023-04-02T12:40:17.250Z,10.67
2023-04-02T12:43:29.593Z,10.87
2023-04-02T12:46:36.915Z,12.48
2023-04-02T12:49:44.811Z,11.49
2023-04-02T12:52:54.801Z,12.15
2023-04-02T12:56:02.840Z,13.56
2023-04-02T12:59:36.006Z,12.37
2023-04-02T13:02:45.255Z,12.32
2023-04-02T13:05:57.009Z,13.17
2023-04-02T13:09:06.655Z,13.35
2023-04-02T13:12:32.656Z,12.64
2023-04-02T13:15:39.805Z,13.49
2023-04-02T13:18:48.961Z,13.31
2023-04-02T13:21:57.643Z,13.70
2023-04-02T13:25:04.965Z,12.87
2023-04-02T13:28:12.169Z,12.81
2023-04-02T13:31:19.351Z,12.85
2023-04-02T13:34:27.763Z,12.70
2023-04-02T13:37:35.200Z,12.28
2023-04-02T13:40:42.461Z,12.09
2023-04-02T13:43:50.758Z,12.07
2023-04-02T13:46:59.942Z,12.43
2023-04-02T13:50:08.365Z,12.05
2023-04-02T13:53:22.533Z,11.38
2023-04-02T13:56:29.740Z,11.32
2023-04-02T13:59:36.938Z,11.61
2023-04-02T14:02:51.786Z,12.18
2023-04-02T14:06:21.717Z,12.08
2023-04-02T14:09:41.020Z,11.83
2023-04-02T14:13:10.138Z,12.50
2023-04-02T14:16:48.266Z,12.31
2023-04-02T14:20:34.960Z,13.37
2023-04-02T14:23:54.698Z,12.68
2023-04-02T14:27:03.059Z,12.74
2023-04-02T14:30:21.927Z,12.53
2023-04-02T14:33:48.412Z,12.28
2023-04-02T14:37:01.504Z,12.42
2023-04-02T14:40:19.701Z,12.82
2023-04-02T14:43:31.865Z,12.35
2023-04-02T14:46:42.447Z,12.52
2023-04-02T14:49:54.693Z,12.73
2023-04-02T14:53:07.602Z,11.44
2023-04-02T14:56:16.146Z,10.48
2023-04-02T14:59:31.184Z,11.22
2023-04-02T15:02:46.490Z,10.47
2023-04-02T15:06:03.349Z,11.59
2023-04-02T15:09:15.665Z,12.01
2023-04-02T15:12:27.007Z,11.44
2023-04-02T15:15:40.423Z,11.91
2023-04-02T15:18:58.635Z,11.56
2023-04-02T15:22:27.636Z,12.10
2023-04-02T15:26:18.158Z,11.46
2023-04-02T15:29:47.477Z,11.14
2023-04-02T15:32:57.725Z,11.66
2023-04-02T15:36:21.415Z,11.52
2023-04-02T15:39:37.541Z,11.19
2023-04-02T15:42:57.386Z,11.25
2023-04-02T15:46:40.012Z,11.66
2023-04-02T15:49:58.250Z,11.43
2023-04-02T15:53:33.042Z,11.06
2023-04-02T15:56:43.900Z,10.77
2023-04-02T16:00:28.212Z,10.19
2023-04-02T16:03:50.530Z,10.83
2023-04-02T16:07:14.297Z,10.68
2023-04-02T16:10:45.912Z,10.71
2023-04-02T16:14:04.118Z,10.33
2023-04-02T16:17:34.197Z,11.23
2023-04-02T16:20:46.639Z,10.94
2023-04-02T16:23:53.813Z,10.58
2023-04-02T16:27:17.427Z,10.29
2023-04-02T16:30:41.799Z,10.15
2023-04-02T16:34:07.349Z,10.82
2023-04-02T16:37:35.511Z,10.79
2023-04-02T16:41:08.673Z,10.74
2023-04-02T16:44:19.306Z,9.21
2023-04-02T16:48:06.495Z,9.71
2023-04-02T16:51:16.368Z,9.97
2023-04-02T16:54:48.331Z,9.71
2023-04-02T16:58:02.199Z,9.91
2023-04-02T17:01:12.336Z,9.50
2023-04-02T17:04:28.776Z,9.66
2023-04-02T17:07:44.343Z,9.61
2023-04-02T17:11:01.686Z,9.86
2023-04-02T17:14:20.313Z,9.45
2023-04-02T17:17:27.749Z,9.51
2023-04-02T17:20:35.177Z,9.35
2023-04-02T17:24:02.601Z,9.49
2023-04-02T17:27:37.759Z,9.46
2023-04-02T17:30:48.102Z,9.35
2023-04-02T17:33:55.520Z,9.35
2023-04-02T17:37:18.517Z,9.18
2023-04-02T17:40:43.660Z,8.97
2023-04-02T17:44:28.401Z,9.29
2023-04-02T17:47:43.129Z,9.57
2023-04-02T17:50:56.081Z,9.20
2023-04-02T17:54:12.530Z,9.62
2023-04-02T17:57:32.257Z,9.43
2023-04-02T18:00:45.775Z,10.06
2023-04-02T18:03:54.810Z,10.43
2023-04-02T18:07:12.813Z,10.48
2023-04-02T18:10:25.385Z,10.73
2023-04-02T18:13:07.774Z,10.78
2023-04-02T18:15:47.850Z,10.68
2023-04-02T18:18:36.321Z,10.75
2023-04-02T18:21:37.690Z,10.74
2023-04-02T18:24:42.699Z,10.82
2023-04-02T18:27:34.606Z,10.85
2023-04-02T18:30:41.175Z,10.58
2023-04-02T18:33:19.857Z,10.54
2023-04-02T18:36:19.465Z,10.38
2023-04-02T18:38:58.941Z,10.56
2023-04-02T18:41:46.222Z,10.57
2023-04-02T18:44:38.679Z,10.65
2023-04-02T18:47:27.517Z,10.47
2023-04-02T18:50:18.733Z,10.33
2023-04-02T18:52:46.120Z,9.67
2023-04-02T18:55:18.089Z,10.13
2023-04-02T18:57:46.477Z,10.27
2023-04-02T19:00:27.313Z,10.40
2023-04-02T19:03:06.044Z,10.42
2023-04-02T19:05:35.759Z,10.44
2023-04-02T19:08:24.708Z,10.49
2023-04-02T19:10:54.654Z,10.41
2023-04-02T19:13:21.536Z,10.18
2023-04-02T19:15:54.330Z,10.24
2023-04-02T19:18:35.495Z,10.21
2023-04-02T19:21:24.831Z,10.01
2023-04-02T19:24:13.101Z,10.19
2023-04-02T19:26:49.589Z,10.09
2023-04-02T19:29:19.598Z,9.95
2023-04-02T19:32:21.134Z,9.78
2023-04-02T19:35:13.611Z,10.06
2023-04-02T19:37:43.301Z,9.99
2023-04-02T19:40:51.648Z,10.21
2023-04-02T19:43:18.401Z,10.27
2023-04-02T19:45:47.837Z,10.10
2023-04-02T19:48:21.768Z,10.27
2023-04-02T19:50:48.864Z,10.25
2023-04-02T19:53:15.618Z,10.16
2023-04-02T19:55:43.121Z,10.16
2023-04-02T19:58:23.305Z,10.11
2023-04-02T20:00:50.261Z,10.07
2023-04-02T20:03:16.780Z,9.96
2023-04-02T20:05:43.545Z,9.87
2023-04-02T20:08:11.004Z,9.88
2023-04-02T20:10:37.985Z,9.72
2023-04-02T20:13:04.727Z,9.71
2023-04-02T20:15:31.259Z,9.54
2023-04-02T20:17:58.041Z,9.55
2023-04-02T20:20:24.540Z,9.55
2023-04-02T20:22:51.128Z,9.52
2023-04-02T20:25:17.884Z,9.42
2023-04-02T20:27:44.365Z,9.44
2023-04-02T20:30:11.393Z,8.99
2023-04-02T20:32:38.346Z,9.18
2023-04-02T20:35:05.982Z,9.16
2023-04-02T20:37:32.767Z,9.03
2023-04-02T20:39:59.437Z,8.90
2023-04-02T20:42:26.348Z,9.20
2023-04-02T20:44:52.855Z,9.23
2023-04-02T20:47:19.428Z,9.21
2023-04-02T20:49:45.939Z,9.01
2023-04-02T20:52:12.450Z,9.08
2023-04-02T20:54:38.918Z,9.02
2023-04-02T20:57:05.479Z,9.06
2023-04-02T20:59:32.048Z,9.29
2023-04-02T21:01:58.598Z,8.64
2023-04-02T21:04:25.714Z,9.14
2023-04-02T21:06:56.837Z,9.04
2023-04-02T21:09:23.965Z,9.02
2023-04-02T21:11:50.585Z,8.66
2023-04-02T21:14:17.784Z,8.34
2023-04-02T21:16:44.715Z,8.85
2023-04-02T21:19:11.784Z,8.85
2023-04-02T21:21:39.336Z,8.64
2023-04-02T21:24:08.479Z,8.47
2023-04-02T21:26:38.209Z,8.44
2023-04-02T21:29:06.057Z,8.12
2023-04-02T21:31:37.535Z,8.11
2023-04-02T21:34:06.018Z,8.09
2023-04-02T21:36:34.833Z,8.27
2023-04-02T21:39:24.117Z,8.46
2023-04-02T21:41:53.131Z,8.63
2023-04-02T21:44:22.142Z,7.91
2023-04-02T21:46:51.821Z,8.42
2023-04-02T21:49:21.951Z,8.35
2023-04-02T21:51:49.172Z,7.71
2023-04-02T21:54:16.736Z,7.75
2023-04-02T21:56:45.194Z,7.98
2023-04-02T21:59:13.624Z,8.24
2023-04-02T22:01:42.334Z,8.09
2023-04-02T22:04:09.848Z,8.23
2023-04-02T22:06:39.421Z,8.09
2023-04-02T22:09:12.427Z,8.15
2023-04-02T22:11:43.224Z,8.21
2023-04-02T22:14:10.049Z,7.81
2023-04-02T22:16:37.387Z,7.81
2023-04-02T22:19:08.945Z,7.86
2023-04-02T22:21:36.531Z,7.93
2023-04-02T22:24:06.109Z,7.92
2023-04-02T22:26:33.479Z,7.96
2023-04-02T22:29:00.630Z,8.12
2023-04-02T22:31:29.849Z,7.84
2023-04-02T22:33:57.611Z,7.83
2023-04-02T22:36:25.806Z,7.85
2023-04-02T22:38:52.577Z,7.91
2023-04-02T22:41:22.013Z,7.60
2023-04-02T22:43:49.259Z,7.81
2023-04-02T22:46:17.113Z,7.78
2023-04-02T22:48:44.416Z,7.76
2023-04-02T22:51:12.854Z,7.70
2023-04-02T22:53:39.789Z,7.67
2023-04-02T22:56:07.839Z,7.43
2023-04-02T22:58:34.842Z,7.49
2023-04-02T23:01:11.924Z,7.56
2023-04-02T23:03:38.586Z,7.24
2023-04-02T23:06:08.877Z,7.53
2023-04-02T23:08:36.755Z,7.60
2023-04-02T23:11:17.953Z,7.43
2023-04-02T23:13:46.847Z,7.40
2023-04-02T23:16:14.319Z,7.26
2023-04-02T23:18:42.796Z,7.53
2023-04-02T23:21:09.551Z,7.34
2023-04-02T23:23:36.757Z,7.47
2023-04-02T23:26:06.273Z,7.45
2023-04-02T23:28:33.152Z,7.52
2023-04-02T23:31:01.745Z,7.06
2023-04-02T23:33:28.257Z,7.47
2023-04-02T23:35:54.844Z,7.45
2023-04-02T23:38:21.534Z,7.54
2023-04-02T23:40:48.025Z,7.57
2023-04-02T23:43:14.551Z,7.28
2023-04-02T23:45:41.376Z,7.38
2023-04-02T23:48:07.981Z,7.18
2023-04-02T23:50:35.283Z,7.08
2023-04-02T23:53:01.979Z,6.92
2023-04-02T23:55:28.481Z,7.01
2023-04-02T23:57:54.993Z,7.06
